Time;durP1;ratioP1;P1;durP2;ratioP2;P2;SDS_P1;SDS_P2;PMS_P1;PMS_P2;Temp;Humidity;BMP_temperature;BMP_pressure;BME280_temperature;BME280_humidity;BME280_pressure;Samples;Min_cycle;Max_cycle;Signal;HPM_P1;HPM_P2
2022/05/13 00:00:10;;;;;;;2.17;1.10;;;;;;;;;;5118257;28;20203;-61
2022/05/13 00:02:38;;;;;;;1.20;1.10;;;;;;;;;;5117910;28;20238;-59
2022/05/13 00:05:06;;;;;;;1.38;0.98;;;;;;;;;;5117945;28;20199;-59
2022/05/13 00:07:33;;;;;;;1.60;1.05;;;;;;;;;;5118031;28;20205;-59
2022/05/13 00:10:05;;;;;;;1.02;1.00;;;;;;;;;;5117569;28;20198;-59
2022/05/13 00:12:33;;;;;;;1.42;0.98;;;;;;;;;;5118017;28;20534;-59
2022/05/13 00:15:03;;;;;;;1.10;0.90;;;;;;;;;;5118208;28;20203;-59
2022/05/13 00:17:30;;;;;;;1.92;1.20;;;;;;;;;;5118420;28;20206;-59
2022/05/13 00:19:57;;;;;;;1.70;1.13;;;;;;;;;;5117319;28;20597;-59
2022/05/13 00:22:25;;;;;;;1.52;1.20;;;;;;;;;;5117673;28;20231;-59
2022/05/13 00:24:54;;;;;;;0.90;0.90;;;;;;;;;;5118088;28;20210;-59
2022/05/13 00:27:22;;;;;;;0.90;0.90;;;;;;;;;;5117769;28;20203;-59
2022/05/13 00:29:49;;;;;;;1.00;0.93;;;;;;;;;;5116992;28;20195;-59
2022/05/13 00:32:19;;;;;;;1.08;1.02;;;;;;;;;;5117163;28;20195;-68
2022/05/13 00:34:48;;;;;;;1.30;0.82;;;;;;;;;;5117943;28;20203;-59
2022/05/13 00:37:17;;;;;;;1.30;1.20;;;;;;;;;;5117647;28;20543;-59
2022/05/13 00:39:45;;;;;;;1.10;1.00;;;;;;;;;;5117493;28;20206;-59
2022/05/13 00:42:17;;;;;;;0.90;0.90;;;;;;;;;;5117004;28;20291;-59
2022/05/13 00:44:45;;;;;;;1.63;1.20;;;;;;;;;;5117611;28;20788;-59
2022/05/13 00:47:13;;;;;;;1.40;1.08;;;;;;;;;;5117473;28;20214;-59
2022/05/13 00:49:43;;;;;;;0.95;0.95;;;;;;;;;;5117282;28;20234;-59
2022/05/13 00:52:11;;;;;;;1.10;1.10;;;;;;;;;;5117784;28;20236;-58
2022/05/13 00:54:41;;;;;;;1.02;0.98;;;;;;;;;;5117565;28;20210;-59
2022/05/13 00:57:11;;;;;;;1.05;0.95;;;;;;;;;;5117041;28;20256;-59
2022/05/13 00:59:39;;;;;;;1.98;1.00;;;;;;;;;;5117953;28;20283;-59
2022/05/13 01:02:06;;;;;;;1.30;1.20;;;;;;;;;;5117802;28;20637;-59
2022/05/13 01:04:35;;;;;;;1.27;1.17;;;;;;;;;;5120745;28;20203;-59
2022/05/13 01:07:07;;;;;;;1.17;1.00;;;;;;;;;;5121244;28;20485;-59
2022/05/13 01:09:37;;;;;;;1.20;1.10;;;;;;;;;;5121960;28;20252;-59
2022/05/13 01:12:08;;;;;;;1.13;1.02;;;;;;;;;;5121406;28;20210;-59
2022/05/13 01:14:37;;;;;;;1.17;1.08;;;;;;;;;;5121753;28;20246;-59
2022/05/13 01:20:19;;;;;;;1.02;1.02;;;;;;;;;;5058638;28;20188;-59
2022/05/13 01:22:49;;;;;;;1.30;1.20;;;;;;;;;;5106308;28;20238;-59
2022/05/13 01:25:18;;;;;;;1.10;1.00;;;;;;;;;;5120894;28;20203;-59
2022/05/13 01:27:47;;;;;;;1.20;1.10;;;;;;;;;;5121322;28;20291;-59
2022/05/13 01:30:18;;;;;;;1.30;1.20;;;;;;;;;;5121347;28;20207;-59
2022/05/13 01:32:45;;;;;;;1.10;1.00;;;;;;;;;;5121659;28;20495;-59
2022/05/13 01:35:13;;;;;;;1.13;1.10;;;;;;;;;;5120699;28;20199;-59
2022/05/13 01:37:41;;;;;;;1.45;1.10;;;;;;;;;;5120803;28;20643;-59
2022/05/13 01:40:11;;;;;;;1.17;1.08;;;;;;;;;;5120004;28;20195;-59
2022/05/13 01:42:39;;;;;;;1.20;1.10;;;;;;;;;;5119896;28;20265;-59
2022/05/13 01:45:07;;;;;;;1.33;1.02;;;;;;;;;;5121167;28;20203;-59
2022/05/13 01:47:35;;;;;;;1.17;1.10;;;;;;;;;;5120656;28;20203;-59
2022/05/13 01:50:03;;;;;;;1.23;0.95;;;;;;;;;;5120831;28;20203;-59
2022/05/13 01:52:30;;;;;;;1.42;1.10;;;;;;;;;;5120667;28;20249;-59
2022/05/13 01:54:58;;;;;;;1.15;1.05;;;;;;;;;;5120201;28;20512;-59
2022/05/13 01:57:26;;;;;;;1.95;1.10;;;;;;;;;;5120296;28;20594;-59
2022/05/13 01:59:55;;;;;;;1.05;1.02;;;;;;;;;;5119848;28;20203;-59
2022/05/13 02:02:22;;;;;;;0.88;0.88;;;;;;;;;;5120401;28;20223;-58
2022/05/13 02:04:50;;;;;;;1.20;1.10;;;;;;;;;;5120225;28;20203;-58
2022/05/13 02:07:17;;;;;;;1.75;1.17;;;;;;;;;;5120175;28;20517;-59
2022/05/13 02:09:45;;;;;;;1.13;1.05;;;;;;;;;;5120151;28;20211;-59
2022/05/13 02:12:12;;;;;;;1.33;1.23;;;;;;;;;;5120059;28;20203;-59
2022/05/13 02:14:41;;;;;;;1.13;1.00;;;;;;;;;;5118563;28;20203;-59
2022/05/13 02:17:09;;;;;;;1.30;1.20;;;;;;;;;;5119718;28;20238;-59
2022/05/13 02:19:37;;;;;;;1.17;1.10;;;;;;;;;;5119931;28;20203;-59
2022/05/13 02:22:05;;;;;;;1.10;1.00;;;;;;;;;;5120165;28;20261;-59
2022/05/13 02:24:32;;;;;;;1.38;1.27;;;;;;;;;;5120030;28;20203;-59
2022/05/13 02:26:59;;;;;;;1.00;0.90;;;;;;;;;;5120273;28;20203;-59
2022/05/13 02:29:27;;;;;;;1.50;1.25;;;;;;;;;;5119809;28;20210;-59
2022/05/13 02:31:55;;;;;;;0.90;0.90;;;;;;;;;;5119800;28;20214;-58
2022/05/13 02:34:23;;;;;;;1.23;1.13;;;;;;;;;;5119746;28;20192;-59
2022/05/13 02:36:50;;;;;;;1.13;1.02;;;;;;;;;;5119630;28;20206;-59
2022/05/13 02:39:17;;;;;;;1.23;1.13;;;;;;;;;;5119772;28;20203;-59
2022/05/13 02:41:45;;;;;;;1.00;1.00;;;;;;;;;;5119358;28;20202;-59
2022/05/13 02:44:12;;;;;;;1.33;1.15;;;;;;;;;;5119357;28;20239;-59
2022/05/13 02:46:41;;;;;;;1.25;1.00;;;;;;;;;;5119273;28;20221;-58
2022/05/13 02:49:10;;;;;;;1.20;1.10;;;;;;;;;;5118797;28;20198;-58
2022/05/13 02:51:38;;;;;;;1.10;1.10;;;;;;;;;;5119565;28;20203;-59
2022/05/13 02:54:05;;;;;;;1.27;1.17;;;;;;;;;;5118623;28;20199;-59
2022/05/13 02:56:33;;;;;;;1.00;0.93;;;;;;;;;;5119662;28;20203;-59
2022/05/13 02:59:00;;;;;;;1.42;1.02;;;;;;;;;;5119750;28;20203;-59
2022/05/13 03:01:28;;;;;;;1.10;1.02;;;;;;;;;;5119016;28;20210;-59
2022/05/13 03:03:55;;;;;;;1.88;1.10;;;;;;;;;;5119173;28;20230;-59
2022/05/13 03:06:24;;;;;;;1.02;1.02;;;;;;;;;;5118649;28;20209;-59
2022/05/13 03:08:51;;;;;;;1.30;1.20;;;;;;;;;;5118566;28;20606;-59
2022/05/13 03:11:20;;;;;;;1.10;1.05;;;;;;;;;;5118892;28;20203;-58
2022/05/13 03:13:48;;;;;;;1.25;1.15;;;;;;;;;;5119138;28;20198;-59
2022/05/13 03:16:18;;;;;;;1.42;1.10;;;;;;;;;;5119120;28;20199;-58
2022/05/13 03:18:46;;;;;;;1.10;1.10;;;;;;;;;;5118870;28;20215;-59
2022/05/13 03:21:13;;;;;;;1.08;0.98;;;;;;;;;;5118497;28;20211;-59
2022/05/13 03:23:43;;;;;;;1.20;1.10;;;;;;;;;;5118511;28;20226;-59
2022/05/13 03:26:11;;;;;;;1.00;1.00;;;;;;;;;;5117772;28;20210;-59
2022/05/13 03:28:38;;;;;;;1.00;1.00;;;;;;;;;;5118678;28;20202;-59
2022/05/13 03:31:06;;;;;;;0.90;0.90;;;;;;;;;;5118035;28;20206;-59
2022/05/13 03:33:34;;;;;;;1.42;1.33;;;;;;;;;;5118891;28;20494;-59
2022/05/13 03:36:01;;;;;;;1.58;1.00;;;;;;;;;;5118962;28;20613;-60
2022/05/13 03:38:29;;;;;;;0.95;0.95;;;;;;;;;;5118294;28;20203;-59
2022/05/13 03:40:58;;;;;;;1.20;1.10;;;;;;;;;;5118481;28;20215;-59
2022/05/13 03:43:25;;;;;;;1.45;1.35;;;;;;;;;;5117854;28;20238;-59
2022/05/13 03:45:53;;;;;;;1.25;1.15;;;;;;;;;;5117998;28;20214;-59
2022/05/13 03:48:20;;;;;;;1.02;0.93;;;;;;;;;;5117776;28;20202;-59
2022/05/13 03:50:48;;;;;;;1.17;1.08;;;;;;;;;;5118372;28;20543;-58
2022/05/13 03:53:15;;;;;;;1.58;1.20;;;;;;;;;;5117344;28;20198;-59
2022/05/13 03:55:43;;;;;;;1.00;1.00;;;;;;;;;;5117923;28;20207;-59
2022/05/13 03:58:12;;;;;;;1.45;1.10;;;;;;;;;;5117752;28;20226;-59
2022/05/13 04:00:40;;;;;;;1.15;1.13;;;;;;;;;;5117333;28;20203;-59
2022/05/13 04:03:07;;;;;;;1.40;1.30;;;;;;;;;;5117803;28;20501;-59
2022/05/13 04:11:05;;;;;;;1.25;1.15;;;;;;;;;;5117693;28;20194;-59
2022/05/13 04:16:18;;;;;;;1.02;1.02;;;;;;;;;;5117330;28;20193;-59
2022/05/13 04:18:47;;;;;;;1.30;1.20;;;;;;;;;;5117358;28;20206;-59
2022/05/13 04:21:17;;;;;;;1.50;1.20;;;;;;;;;;5116932;28;20251;-59
2022/05/13 04:23:46;;;;;;;1.05;1.02;;;;;;;;;;5116872;28;20313;-59
2022/05/13 04:26:14;;;;;;;1.10;1.10;;;;;;;;;;5116630;28;20203;-59
2022/05/13 04:28:44;;;;;;;1.02;1.02;;;;;;;;;;5117257;28;20205;-59
2022/05/13 04:31:12;;;;;;;1.40;1.30;;;;;;;;;;5116863;28;20203;-59
2022/05/13 04:33:40;;;;;;;1.35;1.25;;;;;;;;;;5116903;28;20298;-59
2022/05/13 04:36:08;;;;;;;1.20;1.10;;;;;;;;;;5109145;28;20216;-59
2022/05/13 04:38:36;;;;;;;1.25;1.15;;;;;;;;;;5110595;28;20203;-59
2022/05/13 04:43:46;;;;;;;1.20;1.10;;;;;;;;;;5119588;28;20234;-59
2022/05/13 04:46:14;;;;;;;1.30;1.20;;;;;;;;;;5120496;28;20203;-59
2022/05/13 04:48:41;;;;;;;1.30;1.20;;;;;;;;;;5120483;28;20199;-59
2022/05/13 04:51:10;;;;;;;1.17;1.10;;;;;;;;;;5120417;28;20487;-59
2022/05/13 04:53:38;;;;;;;1.10;1.10;;;;;;;;;;5118707;28;20222;-59
2022/05/13 04:56:07;;;;;;;1.30;1.20;;;;;;;;;;5118358;28;20217;-59
2022/05/13 04:58:34;;;;;;;1.30;1.20;;;;;;;;;;5119343;28;20203;-65
2022/05/13 05:01:04;;;;;;;1.20;1.10;;;;;;;;;;5119625;28;20210;-59
2022/05/13 05:03:32;;;;;;;1.40;1.30;;;;;;;;;;5118937;28;20226;-59
2022/05/13 05:06:00;;;;;;;1.30;1.17;;;;;;;;;;5118489;28;20590;-59
2022/05/13 05:08:29;;;;;;;1.50;1.40;;;;;;;;;;5117339;28;20195;-59
2022/05/13 05:10:57;;;;;;;1.25;1.15;;;;;;;;;;5117928;28;20264;-59
2022/05/13 05:13:25;;;;;;;1.30;1.20;;;;;;;;;;5117316;28;20195;-59
2022/05/13 05:15:53;;;;;;;1.40;1.30;;;;;;;;;;5117276;28;20207;-59
2022/05/13 05:18:22;;;;;;;1.30;1.20;;;;;;;;;;5118201;28;20198;-59
2022/05/13 05:20:49;;;;;;;1.30;1.20;;;;;;;;;;5097773;28;20191;-59
2022/05/13 05:23:18;;;;;;;1.50;1.15;;;;;;;;;;5097511;28;20227;-59
2022/05/13 05:25:45;;;;;;;1.35;1.25;;;;;;;;;;5109616;28;20524;-59
2022/05/13 05:28:13;;;;;;;1.30;1.20;;;;;;;;;;5117394;28;20201;-59
2022/05/13 05:30:41;;;;;;;1.30;1.10;;;;;;;;;;5117436;28;20496;-59
2022/05/13 05:33:08;;;;;;;1.15;1.08;;;;;;;;;;5117681;28;20206;-59
2022/05/13 05:35:37;;;;;;;1.30;1.20;;;;;;;;;;5117240;28;20309;-59
2022/05/13 05:38:05;;;;;;;0.90;0.90;;;;;;;;;;5117589;28;20213;-59
2022/05/13 05:40:33;;;;;;;1.33;1.23;;;;;;;;;;5097493;28;20207;-59
2022/05/13 05:43:04;;;;;;;1.48;1.38;;;;;;;;;;5096553;28;20304;-59
2022/05/13 05:45:31;;;;;;;1.10;1.10;;;;;;;;;;5097443;28;20598;-59
2022/05/13 05:47:58;;;;;;;1.20;1.10;;;;;;;;;;5097268;28;20200;-59
2022/05/13 05:50:26;;;;;;;1.55;1.45;;;;;;;;;;5096483;28;20207;-59
2022/05/13 05:52:55;;;;;;;1.88;1.40;;;;;;;;;;5096990;28;20204;-58
2022/05/13 05:58:12;;;;;;;1.40;1.30;;;;;;;;;;5097809;28;20253;-59
2022/05/13 06:00:43;;;;;;;1.20;1.10;;;;;;;;;;5116617;28;20198;-59
2022/05/13 06:03:12;;;;;;;1.67;1.58;;;;;;;;;;5117698;28;20205;-58
2022/05/13 06:05:40;;;;;;;1.83;1.70;;;;;;;;;;5117574;28;20231;-58
2022/05/13 06:08:09;;;;;;;1.60;1.50;;;;;;;;;;5116324;28;20210;-59
2022/05/13 06:10:37;;;;;;;1.58;1.48;;;;;;;;;;5116171;28;20286;-58
2022/05/13 06:13:05;;;;;;;1.58;1.48;;;;;;;;;;5118296;28;20199;-58
2022/05/13 06:15:32;;;;;;;2.17;1.80;;;;;;;;;;5118055;28;20210;-58
2022/05/13 06:18:00;;;;;;;1.50;1.40;;;;;;;;;;5117874;28;20195;-58
2022/05/13 06:20:28;;;;;;;1.60;1.50;;;;;;;;;;5118021;28;20206;-58
2022/05/13 06:22:56;;;;;;;1.38;1.27;;;;;;;;;;5118902;28;20203;-58
2022/05/13 06:25:25;;;;;;;1.42;1.33;;;;;;;;;;5117652;28;20222;-59
2022/05/13 06:27:54;;;;;;;1.85;1.58;;;;;;;;;;5118624;28;20203;-58
2022/05/13 06:30:25;;;;;;;1.67;1.50;;;;;;;;;;5117704;28;20825;-58
2022/05/13 06:32:53;;;;;;;1.70;1.60;;;;;;;;;;5116047;28;20209;-58
2022/05/13 06:35:20;;;;;;;1.90;1.45;;;;;;;;;;5117533;28;20198;-59
2022/05/13 06:37:48;;;;;;;1.70;1.60;;;;;;;;;;5117432;28;20195;-58
2022/05/13 06:40:15;;;;;;;2.15;1.50;;;;;;;;;;5117014;28;20207;-59
2022/05/13 06:42:44;;;;;;;2.03;1.88;;;;;;;;;;5117593;28;20246;-59
2022/05/13 06:45:13;;;;;;;2.10;1.95;;;;;;;;;;5116282;28;20215;-59
2022/05/13 06:47:40;;;;;;;1.85;1.73;;;;;;;;;;5116575;28;20200;-59
2022/05/13 06:50:09;;;;;;;2.28;1.63;;;;;;;;;;5116457;28;20207;-59
2022/05/13 06:52:36;;;;;;;1.75;1.40;;;;;;;;;;5116543;28;20740;-58
2022/05/13 06:55:04;;;;;;;1.50;1.40;;;;;;;;;;5116822;28;20206;-58
2022/05/13 06:57:31;;;;;;;1.60;1.35;;;;;;;;;;5116221;28;20590;-58
2022/05/13 07:00:00;;;;;;;1.35;1.25;;;;;;;;;;5115234;28;20206;-58
2022/05/13 07:02:27;;;;;;;1.75;1.50;;;;;;;;;;5115977;28;20246;-58
2022/05/13 07:04:55;;;;;;;2.83;1.65;;;;;;;;;;5116283;28;20225;-59
2022/05/13 07:07:22;;;;;;;1.67;1.30;;;;;;;;;;5117249;28;20209;-59
2022/05/13 07:09:50;;;;;;;1.58;1.42;;;;;;;;;;5116214;28;20210;-59
2022/05/13 07:12:17;;;;;;;1.50;1.40;;;;;;;;;;5116007;28;20206;-58
2022/05/13 07:14:44;;;;;;;1.73;1.50;;;;;;;;;;5115921;28;20612;-58
2022/05/13 07:17:13;;;;;;;2.85;1.67;;;;;;;;;;5116237;28;20597;-59
2022/05/13 07:19:41;;;;;;;1.55;1.45;;;;;;;;;;5116483;28;20283;-59
2022/05/13 07:22:08;;;;;;;1.60;1.48;;;;;;;;;;5116428;28;20661;-59
2022/05/13 07:24:35;;;;;;;2.15;1.20;;;;;;;;;;5115486;28;20847;-59
2022/05/13 07:27:03;;;;;;;1.95;1.40;;;;;;;;;;5114709;28;20195;-59
2022/05/13 07:29:31;;;;;;;1.35;1.27;;;;;;;;;;5116197;28;20211;-59
2022/05/13 07:31:59;;;;;;;1.58;1.48;;;;;;;;;;5116258;28;20195;-59
2022/05/13 07:34:27;;;;;;;1.48;1.35;;;;;;;;;;5116781;28;20199;-59
2022/05/13 07:36:56;;;;;;;1.42;1.33;;;;;;;;;;5115557;28;20504;-59
2022/05/13 07:42:09;;;;;;;1.58;1.38;;;;;;;;;;5114767;28;20190;-59
2022/05/13 07:44:36;;;;;;;1.40;1.30;;;;;;;;;;5094597;28;20227;-59
2022/05/13 07:47:04;;;;;;;1.65;1.25;;;;;;;;;;5095083;28;20234;-59
2022/05/13 07:49:34;;;;;;;1.50;1.40;;;;;;;;;;5094600;28;20207;-59
2022/05/13 07:52:01;;;;;;;2.65;1.33;;;;;;;;;;5094742;28;20497;-59
2022/05/13 07:54:29;;;;;;;1.30;1.20;;;;;;;;;;5094916;28;20210;-59
2022/05/13 07:56:57;;;;;;;1.73;1.10;;;;;;;;;;5095871;28;20199;-59
2022/05/13 07:59:24;;;;;;;1.40;1.30;;;;;;;;;;5094998;28;20258;-59
2022/05/13 08:01:51;;;;;;;1.40;1.30;;;;;;;;;;5095107;28;20203;-59
2022/05/13 08:04:19;;;;;;;1.98;1.23;;;;;;;;;;5094761;28;20234;-59
2022/05/13 08:06:48;;;;;;;1.30;1.20;;;;;;;;;;5094959;28;20226;-60
2022/05/13 08:09:16;;;;;;;2.97;1.33;;;;;;;;;;5094955;28;20234;-59
2022/05/13 08:11:44;;;;;;;1.50;1.40;;;;;;;;;;5095394;28;20222;-59
2022/05/13 08:14:11;;;;;;;1.58;1.45;;;;;;;;;;5094908;28;20261;-59
2022/05/13 08:16:39;;;;;;;2.67;1.38;;;;;;;;;;5094784;28;20203;-59
2022/05/13 08:19:07;;;;;;;1.58;1.40;;;;;;;;;;5094259;28;20258;-58
2022/05/13 08:21:34;;;;;;;1.30;1.20;;;;;;;;;;5094634;28;20303;-58
2022/05/13 08:24:03;;;;;;;2.20;1.33;;;;;;;;;;5093968;28;20559;-59
2022/05/13 08:26:30;;;;;;;2.10;1.00;;;;;;;;;;5095337;28;20200;-59
2022/05/13 08:28:58;;;;;;;1.48;1.35;;;;;;;;;;5094875;28;20443;-58
2022/05/13 08:31:25;;;;;;;1.30;1.20;;;;;;;;;;5094825;28;20571;-58
2022/05/13 08:33:52;;;;;;;2.60;1.40;;;;;;;;;;5095109;28;20211;-59
2022/05/13 08:36:20;;;;;;;1.88;1.40;;;;;;;;;;5094621;28;20214;-59
2022/05/13 08:38:49;;;;;;;1.92;1.30;;;;;;;;;;5095108;28;20204;-59
2022/05/13 08:41:24;;;;;;;3.35;1.52;;;;;;;;;;5094948;28;20559;-58
2022/05/13 08:43:53;;;;;;;1.60;1.30;;;;;;;;;;5094693;28;20238;-58
2022/05/13 08:46:29;;;;;;;1.80;1.23;;;;;;;;;;5094665;28;20219;-59
2022/05/13 08:48:59;;;;;;;2.75;1.38;;;;;;;;;;5094461;28;20233;-58
2022/05/13 08:51:31;;;;;;;1.50;1.40;;;;;;;;;;5095383;28;20230;-59
2022/05/13 08:54:02;;;;;;;2.47;1.40;;;;;;;;;;5094530;28;20211;-59
2022/05/13 08:56:31;;;;;;;2.50;1.30;;;;;;;;;;5094424;28;20204;-58
2022/05/13 08:59:00;;;;;;;3.00;1.33;;;;;;;;;;5093968;28;20215;-59
2022/05/13 09:01:30;;;;;;;2.17;1.40;;;;;;;;;;5083162;28;20188;-58
2022/05/13 09:04:00;;;;;;;2.60;1.70;;;;;;;;;;5074056;28;20228;-58
2022/05/13 09:06:36;;;;;;;2.28;1.33;;;;;;;;;;5073900;28;20224;-59
2022/05/13 09:09:05;;;;;;;2.17;1.40;;;;;;;;;;5074027;28;20200;-59
2022/05/13 09:11:34;;;;;;;1.85;1.67;;;;;;;;;;5073586;28;20211;-58
2022/05/13 09:14:05;;;;;;;2.17;1.50;;;;;;;;;;5089453;28;20200;-58
2022/05/13 09:16:41;;;;;;;2.90;1.30;;;;;;;;;;5094562;28;20675;-58
2022/05/13 09:19:14;;;;;;;2.22;1.58;;;;;;;;;;5094155;28;20227;-58
2022/05/13 09:21:43;;;;;;;2.88;1.60;;;;;;;;;;5094384;28;20231;-58
2022/05/13 09:24:10;;;;;;;2.58;1.50;;;;;;;;;;5094751;28;20272;-58
2022/05/13 09:26:39;;;;;;;3.20;1.50;;;;;;;;;;5088816;28;20219;-59
2022/05/13 09:29:08;;;;;;;2.92;1.58;;;;;;;;;;5096577;28;20203;-59
2022/05/13 09:31:38;;;;;;;1.77;1.60;;;;;;;;;;5097531;28;20211;-58
2022/05/13 09:34:14;;;;;;;1.70;1.60;;;;;;;;;;5096821;28;20203;-58
2022/05/13 09:36:41;;;;;;;2.83;1.58;;;;;;;;;;5094081;28;20195;-58
2022/05/13 09:39:20;;;;;;;3.08;1.40;;;;;;;;;;5093310;28;20273;-59
2022/05/13 09:41:52;;;;;;;2.05;1.60;;;;;;;;;;5097752;28;20207;-58
2022/05/13 09:44:20;;;;;;;2.60;1.70;;;;;;;;;;5096309;28;20231;-59
2022/05/13 09:46:50;;;;;;;2.33;1.50;;;;;;;;;;5097131;28;20200;-59
2022/05/13 09:49:24;;;;;;;2.25;1.65;;;;;;;;;;5096957;28;20479;-58
2022/05/13 09:51:54;;;;;;;3.92;3.20;;;;;;;;;;5097412;28;20200;-58
2022/05/13 09:54:24;;;;;;;5.85;5.25;;;;;;;;;;5095177;28;20203;-58
2022/05/13 09:56:55;;;;;;;4.30;3.90;;;;;;;;;;5096130;28;20290;-58
2022/05/13 09:59:23;;;;;;;6.35;5.75;;;;;;;;;;5096640;28;20204;-58
2022/05/13 10:01:51;;;;;;;4.93;4.28;;;;;;;;;;5097189;28;20200;-59
2022/05/13 10:04:21;;;;;;;5.90;5.28;;;;;;;;;;5097344;28;20207;-58
2022/05/13 10:06:49;;;;;;;4.40;4.00;;;;;;;;;;5096464;28;20228;-59
2022/05/13 10:15:07;;;;;;;5.55;4.13;;;;;;;;;;5095085;28;20222;-58
2022/05/13 10:17:35;;;;;;;4.22;3.50;;;;;;;;;;5094603;28;20227;-58
2022/05/13 10:20:04;;;;;;;4.47;3.40;;;;;;;;;;5096111;28;20195;-58
2022/05/13 10:22:35;;;;;;;4.28;3.55;;;;;;;;;;5095317;28;20200;-58
2022/05/13 10:25:04;;;;;;;4.22;3.33;;;;;;;;;;5095321;28;20219;-59
2022/05/13 10:27:36;;;;;;;3.55;2.80;;;;;;;;;;5096272;28;20604;-58
2022/05/13 10:30:05;;;;;;;4.50;2.53;;;;;;;;;;5095151;28;20214;-59
2022/05/13 10:32:50;;;;;;;2.75;2.53;;;;;;;;;;5095719;28;20226;-58
2022/05/13 10:35:19;;;;;;;2.88;2.58;;;;;;;;;;5091807;28;20188;-58
2022/05/13 10:37:53;;;;;;;3.47;2.67;;;;;;;;;;5094559;28;20779;-58
2022/05/13 10:40:22;;;;;;;2.75;2.22;;;;;;;;;;5095451;28;20605;-58
2022/05/13 10:42:56;;;;;;;2.47;2.28;;;;;;;;;;5095269;28;20228;-58
2022/05/13 10:45:25;;;;;;;2.40;2.20;;;;;;;;;;5095123;28;20259;-58
2022/05/13 10:47:55;;;;;;;3.63;2.10;;;;;;;;;;5093933;28;20285;-59
2022/05/13 10:50:26;;;;;;;2.63;1.80;;;;;;;;;;5094832;28;20210;-58
2022/05/13 10:52:56;;;;;;;2.38;1.80;;;;;;;;;;5094797;28;20704;-59
2022/05/13 10:55:26;;;;;;;2.92;1.77;;;;;;;;;;5095126;28;20192;-59
2022/05/13 10:57:59;;;;;;;1.65;1.50;;;;;;;;;;5088516;28;20200;-58
2022/05/13 11:00:29;;;;;;;2.47;2.05;;;;;;;;;;5088172;28;20200;-58
2022/05/13 11:03:14;;;;;;;2.83;1.60;;;;;;;;;;5095326;28;20203;-58
2022/05/13 11:05:44;;;;;;;2.28;1.83;;;;;;;;;;5094631;28;20219;-58
2022/05/13 11:08:16;;;;;;;3.75;1.90;;;;;;;;;;5095604;28;20486;-58
2022/05/13 11:10:48;;;;;;;3.25;1.90;;;;;;;;;;5094747;28;20225;-58
2022/05/13 11:13:21;;;;;;;2.90;1.77;;;;;;;;;;5112332;28;20203;-58
2022/05/13 11:15:51;;;;;;;2.50;1.65;;;;;;;;;;5115932;28;20551;-59
2022/05/13 11:18:23;;;;;;;3.03;1.50;;;;;;;;;;5115821;28;20229;-58
2022/05/13 11:21:00;;;;;;;2.47;1.70;;;;;;;;;;5115603;28;20643;-59
2022/05/13 11:23:33;;;;;;;2.30;1.80;;;;;;;;;;5115061;28;20566;-59
2022/05/13 11:26:12;;;;;;;2.75;1.88;;;;;;;;;;5116342;28;20551;-59
2022/05/13 11:28:53;;;;;;;2.42;1.83;;;;;;;;;;5095419;28;20519;-58
2022/05/13 11:31:51;;;;;;;2.45;1.52;;;;;;;;;;5094261;28;20199;-58
2022/05/13 11:34:23;;;;;;;2.67;1.70;;;;;;;;;;4991922;28;20242;-59
2022/05/13 11:36:55;;;;;;;2.80;1.80;;;;;;;;;;5073678;28;20234;-58
2022/05/13 11:39:32;;;;;;;1.67;1.50;;;;;;;;;;5093994;28;20210;-58
2022/05/13 11:42:06;;;;;;;2.10;1.50;;;;;;;;;;5094060;28;20590;-58
2022/05/13 11:44:41;;;;;;;1.40;1.30;;;;;;;;;;5093222;28;20644;-58
2022/05/13 11:47:13;;;;;;;1.90;1.38;;;;;;;;;;5092444;28;20796;-59
2022/05/13 11:49:43;;;;;;;3.38;1.58;;;;;;;;;;5094106;28;20196;-63
2022/05/13 11:52:26;;;;;;;1.77;1.40;;;;;;;;;;5094203;28;20203;-58
2022/05/13 11:55:12;;;;;;;2.28;1.27;;;;;;;;;;5094634;28;20211;-59
2022/05/13 11:57:42;;;;;;;2.45;1.42;;;;;;;;;;5094285;28;20204;-59
2022/05/13 12:00:23;;;;;;;1.38;1.23;;;;;;;;;;5094740;28;20200;-59
2022/05/13 12:02:52;;;;;;;1.63;1.30;;;;;;;;;;5094574;28;20203;-60
2022/05/13 12:05:31;;;;;;;1.67;1.30;;;;;;;;;;5095547;28;20209;-58
2022/05/13 12:08:07;;;;;;;3.90;1.30;;;;;;;;;;5113905;28;20597;-59
2022/05/13 12:10:38;;;;;;;2.00;1.42;;;;;;;;;;5114651;28;20202;-59
2022/05/13 12:13:11;;;;;;;1.30;1.20;;;;;;;;;;5114297;28;20214;-59
2022/05/13 12:15:48;;;;;;;2.50;1.17;;;;;;;;;;5114127;28;20195;-58
2022/05/13 12:18:24;;;;;;;3.28;1.35;;;;;;;;;;5113743;28;20263;-58
2022/05/13 12:20:56;;;;;;;1.50;1.33;;;;;;;;;;5104009;28;20699;-59
2022/05/13 12:23:26;;;;;;;2.80;1.40;;;;;;;;;;5093524;28;20199;-58
2022/05/13 12:25:55;;;;;;;2.13;1.10;;;;;;;;;;5092370;28;20309;-58
2022/05/13 12:28:30;;;;;;;2.78;1.20;;;;;;;;;;5093433;28;20265;-59
2022/05/13 12:30:59;;;;;;;1.20;1.10;;;;;;;;;;5092755;28;20264;-58
2022/05/13 12:33:38;;;;;;;1.25;1.08;;;;;;;;;;5093615;28;20258;-59
2022/05/13 12:39:07;;;;;;;2.97;1.27;;;;;;;;;;5092796;28;20250;-59
2022/05/13 12:41:47;;;;;;;1.23;1.00;;;;;;;;;;5093972;28;20199;-59
2022/05/13 12:44:18;;;;;;;1.83;1.10;;;;;;;;;;5092857;28;20275;-59
2022/05/13 12:46:48;;;;;;;1.10;1.00;;;;;;;;;;5093886;28;20625;-58
2022/05/13 12:49:19;;;;;;;3.03;1.08;;;;;;;;;;5093650;28;20624;-58
2022/05/13 12:51:48;;;;;;;1.20;1.00;;;;;;;;;;5093818;28;20214;-58
2022/05/13 12:54:18;;;;;;;2.67;1.42;;;;;;;;;;5093616;28;20231;-58
2022/05/13 12:56:47;;;;;;;2.45;1.00;;;;;;;;;;5093061;28;20196;-58
2022/05/13 12:59:16;;;;;;;1.20;1.10;;;;;;;;;;5095171;28;20199;-59
2022/05/13 13:01:44;;;;;;;1.60;1.20;;;;;;;;;;5096846;28;20256;-59
2022/05/13 13:04:14;;;;;;;1.33;1.00;;;;;;;;;;5097706;28;20211;-59
2022/05/13 13:06:43;;;;;;;1.10;1.00;;;;;;;;;;5096158;28;20227;-59
2022/05/13 13:09:18;;;;;;;2.97;1.20;;;;;;;;;;5097199;28;20208;-59
2022/05/13 13:11:50;;;;;;;1.73;1.00;;;;;;;;;;5096546;28;20253;-59
2022/05/13 13:14:19;;;;;;;1.05;0.90;;;;;;;;;;5095964;28;20208;-59
2022/05/13 13:16:50;;;;;;;1.70;1.27;;;;;;;;;;5097212;28;20200;-59
2022/05/13 13:19:21;;;;;;;1.42;1.20;;;;;;;;;;5097583;28;20207;-59
2022/05/13 13:21:53;;;;;;;1.95;1.00;;;;;;;;;;5097663;28;20212;-58
2022/05/13 13:24:21;;;;;;;0.93;0.88;;;;;;;;;;5097203;28;20239;-58
2022/05/13 13:26:50;;;;;;;1.80;1.10;;;;;;;;;;5096327;28;20237;-58
2022/05/13 13:29:20;;;;;;;2.28;1.15;;;;;;;;;;5097442;28;20207;-59
2022/05/13 13:31:49;;;;;;;1.83;0.98;;;;;;;;;;5096684;28;20199;-58
2022/05/13 13:34:25;;;;;;;1.25;1.00;;;;;;;;;;5096375;28;20290;-59
2022/05/13 13:36:53;;;;;;;1.77;0.82;;;;;;;;;;5096286;28;20697;-58
2022/05/13 13:39:22;;;;;;;1.83;1.08;;;;;;;;;;5096399;28;20203;-59
2022/05/13 13:41:58;;;;;;;1.45;0.93;;;;;;;;;;5096563;28;20264;-59
2022/05/13 13:44:25;;;;;;;1.70;1.00;;;;;;;;;;5096386;28;20238;-58
2022/05/13 13:46:53;;;;;;;2.08;1.10;;;;;;;;;;5096329;28;20224;-59
2022/05/13 13:49:26;;;;;;;2.15;1.00;;;;;;;;;;5096777;28;20195;-58
2022/05/13 13:51:56;;;;;;;1.80;0.90;;;;;;;;;;5095903;28;20687;-59
2022/05/13 13:54:28;;;;;;;1.80;1.13;;;;;;;;;;5095783;28;20210;-59
2022/05/13 13:57:01;;;;;;;2.25;1.10;;;;;;;;;;5096116;28;20452;-58
2022/05/13 13:59:34;;;;;;;1.20;1.10;;;;;;;;;;5096145;28;20213;-58
2022/05/13 14:02:02;;;;;;;2.22;1.10;;;;;;;;;;5096906;28;20200;-60
2022/05/13 14:04:30;;;;;;;1.63;1.10;;;;;;;;;;5096723;28;20239;-58
2022/05/13 14:07:00;;;;;;;1.17;1.08;;;;;;;;;;5096368;28;20631;-58
2022/05/13 14:09:30;;;;;;;1.13;1.00;;;;;;;;;;5096353;28;20204;-59
2022/05/13 14:11:58;;;;;;;1.50;1.13;;;;;;;;;;5094973;28;20296;-58
2022/05/13 14:14:26;;;;;;;1.02;0.80;;;;;;;;;;5095492;28;20283;-59
2022/05/13 14:16:55;;;;;;;1.10;0.90;;;;;;;;;;5096115;28;20207;-59
2022/05/13 14:19:24;;;;;;;1.88;1.05;;;;;;;;;;5096380;28;20268;-59
2022/05/13 14:21:53;;;;;;;1.35;0.88;;;;;;;;;;5095562;28;20502;-59
2022/05/13 14:24:32;;;;;;;1.63;1.00;;;;;;;;;;5095913;28;20195;-58
2022/05/13 14:27:00;;;;;;;2.10;1.10;;;;;;;;;;5095627;28;20235;-58
2022/05/13 14:29:32;;;;;;;1.08;0.98;;;;;;;;;;5094977;28;20222;-59
2022/05/13 14:32:05;;;;;;;1.73;0.82;;;;;;;;;;5110820;28;20229;-58
2022/05/13 14:34:32;;;;;;;2.28;1.15;;;;;;;;;;5100852;28;20225;-58
2022/05/13 14:37:01;;;;;;;1.52;0.90;;;;;;;;;;5095445;28;20192;-59
2022/05/13 14:42:18;;;;;;;1.25;0.90;;;;;;;;;;5095677;28;20191;-58
2022/05/13 14:44:46;;;;;;;1.17;0.90;;;;;;;;;;5095116;28;20203;-58
2022/05/13 14:47:19;;;;;;;1.58;1.00;;;;;;;;;;5095271;28;20223;-59
2022/05/13 14:49:54;;;;;;;2.25;1.00;;;;;;;;;;5088464;28;20275;-59
2022/05/13 14:52:25;;;;;;;1.02;0.80;;;;;;;;;;5093935;28;20214;-58
2022/05/13 14:54:53;;;;;;;0.88;0.88;;;;;;;;;;5093971;28;20200;-58
2022/05/13 14:57:22;;;;;;;1.05;0.93;;;;;;;;;;5094437;28;20196;-58
2022/05/13 14:59:56;;;;;;;1.13;0.95;;;;;;;;;;5095409;28;20195;-58
2022/05/13 15:02:30;;;;;;;1.08;1.00;;;;;;;;;;5094278;28;20199;-58
2022/05/13 15:05:06;;;;;;;2.03;1.00;;;;;;;;;;5095288;28;20203;-59
2022/05/13 15:07:38;;;;;;;1.27;1.02;;;;;;;;;;5094378;28;20234;-59
2022/05/13 15:10:06;;;;;;;1.52;1.35;;;;;;;;;;5093976;28;20591;-58
2022/05/13 15:12:35;;;;;;;2.40;0.90;;;;;;;;;;5094976;28;20801;-59
2022/05/13 15:15:03;;;;;;;1.77;1.10;;;;;;;;;;5094651;28;20276;-59
2022/05/13 15:17:35;;;;;;;1.02;0.90;;;;;;;;;;5094769;28;20294;-59
2022/05/13 15:20:03;;;;;;;1.42;1.02;;;;;;;;;;5094785;28;20211;-58
2022/05/13 15:22:30;;;;;;;2.05;1.20;;;;;;;;;;5095267;28;20207;-58
2022/05/13 15:24:58;;;;;;;3.10;1.20;;;;;;;;;;5095009;28;20203;-59
2022/05/13 15:27:26;;;;;;;2.63;1.10;;;;;;;;;;5093870;28;20769;-58